sensor_id;sensor_type;location;lat;lon;timestamp;pressure;altitude;pressure_sealevel;temperature;humidity
77574;BME280;66710;48.868;9.080;2023-03-23T00:00:48;97423.34;;;13.31;50.70
77574;BME280;66710;48.868;9.080;2023-03-23T00:03:13;97422.22;;;13.18;50.82
77574;BME280;66710;48.868;9.080;2023-03-23T00:05:39;97421.38;;;13.18;51.20
77574;BME280;66710;48.868;9.080;2023-03-23T00:08:06;97417.53;;;13.05;51.59
77574;BME280;66710;48.868;9.080;2023-03-23T00:10:34;97416.34;;;12.97;52.52
77574;BME280;66710;48.868;9.080;2023-03-23T00:13:00;97426.88;;;12.90;52.79
77574;BME280;66710;48.868;9.080;2023-03-23T00:15:27;97426.03;;;13.03;52.01
77574;BME280;66710;48.868;9.080;2023-03-23T00:17:55;97435.16;;;12.99;51.83
77574;BME280;66710;48.868;9.080;2023-03-23T00:20:28;97424.66;;;13.06;51.49
77574;BME280;66710;48.868;9.080;2023-03-23T00:22:54;97425.25;;;13.17;51.21
77574;BME280;66710;48.868;9.080;2023-03-23T00:25:24;97417.06;;;13.17;51.32
77574;BME280;66710;48.868;9.080;2023-03-23T00:27:49;97418.84;;;13.07;51.81
77574;BME280;66710;48.868;9.080;2023-03-23T00:30:15;97412.78;;;13.11;51.38
77574;BME280;66710;48.868;9.080;2023-03-23T00:32:41;97418.84;;;13.07;51.63
77574;BME280;66710;48.868;9.080;2023-03-23T00:35:06;97414.31;;;13.03;52.06
77574;BME280;66710;48.868;9.080;2023-03-23T00:37:32;97407.59;;;13.09;52.15
77574;BME280;66710;48.868;9.080;2023-03-23T00:39:57;97399.22;;;13.19;51.63
77574;BME280;66710;48.868;9.080;2023-03-23T00:42:25;97392.63;;;13.06;52.32
77574;BME280;66710;48.868;9.080;2023-03-23T00:44:51;97395.16;;;13.03;52.66
77574;BME280;66710;48.868;9.080;2023-03-23T00:47:25;97375.53;;;13.15;52.14
77574;BME280;66710;48.868;9.080;2023-03-23T00:49:50;97380.66;;;13.16;51.91
77574;BME280;66710;48.868;9.080;2023-03-23T00:52:17;97378.56;;;13.13;52.21
77574;BME280;66710;48.868;9.080;2023-03-23T00:54:42;97367.31;;;13.15;52.51
77574;BME280;66710;48.868;9.080;2023-03-23T00:57:07;97372.25;;;13.13;52.10
77574;BME280;66710;48.868;9.080;2023-03-23T00:59:33;97374.78;;;13.09;52.04
77574;BME280;66710;48.868;9.080;2023-03-23T01:01:58;97366.47;;;13.14;52.44
77574;BME280;66710;48.868;9.080;2023-03-23T01:04:23;97363.66;;;13.19;52.24
77574;BME280;66710;48.868;9.080;2023-03-23T01:06:49;97364.47;;;13.06;52.99
77574;BME280;66710;48.868;9.080;2023-03-23T01:09:19;97362.44;;;13.12;52.36
77574;BME280;66710;48.868;9.080;2023-03-23T01:11:47;97356.38;;;13.15;52.39
77574;BME280;66710;48.868;9.080;2023-03-23T01:14:14;97353.84;;;13.04;53.60
77574;BME280;66710;48.868;9.080;2023-03-23T01:16:39;97358.28;;;13.00;53.30
77574;BME280;66710;48.868;9.080;2023-03-23T01:19:05;97355.34;;;13.11;52.65
77574;BME280;66710;48.868;9.080;2023-03-23T01:21:30;97363.84;;;13.09;52.94
77574;BME280;66710;48.868;9.080;2023-03-23T01:23:56;97369.53;;;13.13;52.90
77574;BME280;66710;48.868;9.080;2023-03-23T01:26:24;97360.91;;;13.05;52.87
77574;BME280;66710;48.868;9.080;2023-03-23T01:28:49;97365.38;;;13.01;52.89
77574;BME280;66710;48.868;9.080;2023-03-23T01:31:17;97355.97;;;12.94;53.02
77574;BME280;66710;48.868;9.080;2023-03-23T01:33:44;97348.19;;;13.01;52.74
77574;BME280;66710;48.868;9.080;2023-03-23T01:36:15;97349.97;;;13.05;52.83
77574;BME280;66710;48.868;9.080;2023-03-23T01:38:46;97345.44;;;13.01;52.81
77574;BME280;66710;48.868;9.080;2023-03-23T01:41:12;97338.03;;;13.15;52.35
77574;BME280;66710;48.868;9.080;2023-03-23T01:44:02;97323.88;;;13.13;52.36
77574;BME280;66710;48.868;9.080;2023-03-23T01:46:32;97329.13;;;13.09;52.57
77574;BME280;66710;48.868;9.080;2023-03-23T01:49:03;97321.84;;;13.05;52.45
77574;BME280;66710;48.868;9.080;2023-03-23T01:51:34;97326.41;;;12.96;52.82
77574;BME280;66710;48.868;9.080;2023-03-23T01:54:02;97324.56;;;12.91;53.37
77574;BME280;66710;48.868;9.080;2023-03-23T01:56:34;97321.34;;;12.89;53.43
77574;BME280;66710;48.868;9.080;2023-03-23T01:59:03;97330.34;;;12.89;53.10
77574;BME280;66710;48.868;9.080;2023-03-23T02:01:28;97326.00;;;12.88;53.24
77574;BME280;66710;48.868;9.080;2023-03-23T02:03:56;97320.63;;;12.83;53.79
77574;BME280;66710;48.868;9.080;2023-03-23T02:06:23;97319.94;;;12.78;53.85
77574;BME280;66710;48.868;9.080;2023-03-23T02:08:50;97317.91;;;12.69;54.20
77574;BME280;66710;48.868;9.080;2023-03-23T02:11:18;97318.41;;;12.71;53.92
77574;BME280;66710;48.868;9.080;2023-03-23T02:13:45;97319.19;;;12.58;55.08
77574;BME280;66710;48.868;9.080;2023-03-23T02:21:27;97321.13;;;12.58;53.64
77574;BME280;66710;48.868;9.080;2023-03-23T02:27:23;97318.59;;;12.47;53.77
77574;BME280;66710;48.868;9.080;2023-03-23T02:35:37;97301.75;;;12.26;54.94
77574;BME280;66710;48.868;9.080;2023-03-23T02:38:08;97288.63;;;12.28;54.53
77574;BME280;66710;48.868;9.080;2023-03-23T02:40:41;97282.53;;;12.31;54.36
77574;BME280;66710;48.868;9.080;2023-03-23T02:43:10;97279.31;;;12.29;54.84
77574;BME280;66710;48.868;9.080;2023-03-23T02:45:37;97284.38;;;12.36;54.75
77574;BME280;66710;48.868;9.080;2023-03-23T02:48:05;97278.13;;;12.36;54.59
77574;BME280;66710;48.868;9.080;2023-03-23T02:50:32;97265.47;;;12.40;54.91
77574;BME280;66710;48.868;9.080;2023-03-23T02:52:59;97261.94;;;12.39;55.08
77574;BME280;66710;48.868;9.080;2023-03-23T02:55:27;97249.97;;;12.35;55.59
77574;BME280;66710;48.868;9.080;2023-03-23T02:57:55;97258.91;;;12.41;55.39
77574;BME280;66710;48.868;9.080;2023-03-23T03:00:21;97253.34;;;12.46;55.29
77574;BME280;66710;48.868;9.080;2023-03-23T03:02:48;97262.53;;;12.50;54.91
77574;BME280;66710;48.868;9.080;2023-03-23T03:06:19;97256.34;;;12.58;54.74
77574;BME280;66710;48.868;9.080;2023-03-23T03:08:45;97253.84;;;12.62;54.78
77574;BME280;66710;48.868;9.080;2023-03-23T03:11:16;97254.66;;;12.62;54.47
77574;BME280;66710;48.868;9.080;2023-03-23T03:13:53;97269.81;;;12.68;54.36
77574;BME280;66710;48.868;9.080;2023-03-23T03:19:26;97263.22;;;12.83;53.53
77574;BME280;66710;48.868;9.080;2023-03-23T03:21:55;97259.28;;;12.76;53.67
77574;BME280;66710;48.868;9.080;2023-03-23T03:24:24;97258.69;;;12.79;53.55
77574;BME280;66710;48.868;9.080;2023-03-23T03:26:52;97244.00;;;12.88;53.21
77574;BME280;66710;48.868;9.080;2023-03-23T03:29:22;97243.34;;;12.92;52.95
77574;BME280;66710;48.868;9.080;2023-03-23T03:31:50;97251.25;;;12.93;53.40
77574;BME280;66710;48.868;9.080;2023-03-23T03:34:20;97252.50;;;12.87;53.33
77574;BME280;66710;48.868;9.080;2023-03-23T03:36:48;97255.63;;;12.94;52.96
77574;BME280;66710;48.868;9.080;2023-03-23T03:39:15;97265.31;;;13.00;53.17
77574;BME280;66710;48.868;9.080;2023-03-23T03:41:43;97256.63;;;12.98;53.27
77574;BME280;66710;48.868;9.080;2023-03-23T03:44:08;97251.94;;;12.99;53.23
77574;BME280;66710;48.868;9.080;2023-03-23T03:46:34;97240.72;;;13.00;53.00
77574;BME280;66710;48.868;9.080;2023-03-23T03:49:02;97234.63;;;13.03;52.25
77574;BME280;66710;48.868;9.080;2023-03-23T03:51:29;97241.84;;;12.99;53.26
77574;BME280;66710;48.868;9.080;2023-03-23T03:53:55;97239.09;;;12.99;53.14
77574;BME280;66710;48.868;9.080;2023-03-23T03:56:21;97249.22;;;12.99;52.85
77574;BME280;66710;48.868;9.080;2023-03-23T03:58:51;97254.00;;;12.93;53.41
77574;BME280;66710;48.868;9.080;2023-03-23T04:01:18;97248.22;;;12.95;52.90
77574;BME280;66710;48.868;9.080;2023-03-23T04:03:46;97257.84;;;12.92;52.97
77574;BME280;66710;48.868;9.080;2023-03-23T04:06:11;97252.69;;;12.90;53.20
77574;BME280;66710;48.868;9.080;2023-03-23T04:08:37;97249.16;;;12.90;53.11
77574;BME280;66710;48.868;9.080;2023-03-23T04:11:04;97261.50;;;12.87;53.38
77574;BME280;66710;48.868;9.080;2023-03-23T04:13:30;97256.44;;;12.81;53.74
77574;BME280;66710;48.868;9.080;2023-03-23T04:15:56;97264.03;;;12.84;53.50
77574;BME280;66710;48.868;9.080;2023-03-23T04:18:21;97259.28;;;12.76;54.39
77574;BME280;66710;48.868;9.080;2023-03-23T04:20:48;97251.50;;;12.69;54.35
77574;BME280;66710;48.868;9.080;2023-03-23T04:23:18;97258.78;;;12.74;54.76
77574;BME280;66710;48.868;9.080;2023-03-23T04:25:49;97253.91;;;12.84;54.18
77574;BME280;66710;48.868;9.080;2023-03-23T04:28:15;97257.69;;;12.75;54.47
77574;BME280;66710;48.868;9.080;2023-03-23T04:30:44;97248.25;;;12.81;54.60
77574;BME280;66710;48.868;9.080;2023-03-23T04:33:11;97247.34;;;12.85;54.44
77574;BME280;66710;48.868;9.080;2023-03-23T04:35:39;97237.88;;;12.92;54.40
77574;BME280;66710;48.868;9.080;2023-03-23T04:38:05;97236.69;;;12.98;54.48
77574;BME280;66710;48.868;9.080;2023-03-23T04:40:30;97238.25;;;13.13;53.69
77574;BME280;66710;48.868;9.080;2023-03-23T04:42:55;97241.19;;;13.16;53.19
77574;BME280;66710;48.868;9.080;2023-03-23T04:45:22;97245.63;;;13.26;53.18
77574;BME280;66710;48.868;9.080;2023-03-23T04:47:49;97240.88;;;13.32;53.14
77574;BME280;66710;48.868;9.080;2023-03-23T04:50:20;97242.50;;;13.33;52.56
77574;BME280;66710;48.868;9.080;2023-03-23T04:52:47;97243.97;;;13.39;52.39
77574;BME280;66710;48.868;9.080;2023-03-23T04:55:13;97225.19;;;13.46;52.22
77574;BME280;66710;48.868;9.080;2023-03-23T04:57:39;97254.69;;;13.49;52.16
77574;BME280;66710;48.868;9.080;2023-03-23T05:00:05;97256.94;;;13.47;52.62
77574;BME280;66710;48.868;9.080;2023-03-23T05:02:37;97255.78;;;13.48;52.65
77574;BME280;66710;48.868;9.080;2023-03-23T05:05:07;97251.34;;;13.52;52.06
77574;BME280;66710;48.868;9.080;2023-03-23T05:07:33;97251.94;;;13.49;52.29
77574;BME280;66710;48.868;9.080;2023-03-23T05:09:59;97249.53;;;13.48;52.21
77574;BME280;66710;48.868;9.080;2023-03-23T05:12:24;97244.72;;;13.53;52.03
77574;BME280;66710;48.868;9.080;2023-03-23T05:14:49;97243.75;;;13.49;52.11
77574;BME280;66710;48.868;9.080;2023-03-23T05:17:15;97242.00;;;13.53;51.78
77574;BME280;66710;48.868;9.080;2023-03-23T05:19:42;97253.31;;;13.60;51.11
77574;BME280;66710;48.868;9.080;2023-03-23T05:22:09;97243.44;;;13.51;51.73
77574;BME280;66710;48.868;9.080;2023-03-23T05:24:34;97253.06;;;13.48;51.81
77574;BME280;66710;48.868;9.080;2023-03-23T05:27:01;97246.28;;;13.45;51.74
77574;BME280;66710;48.868;9.080;2023-03-23T05:29:29;97251.56;;;13.42;52.17
77574;BME280;66710;48.868;9.080;2023-03-23T05:31:56;97259.28;;;13.40;51.60
77574;BME280;66710;48.868;9.080;2023-03-23T05:34:25;97258.91;;;13.33;52.27
77574;BME280;66710;48.868;9.080;2023-03-23T05:36:51;97247.75;;;13.29;52.34
77574;BME280;66710;48.868;9.080;2023-03-23T05:39:18;97243.38;;;13.28;51.93
77574;BME280;66710;48.868;9.080;2023-03-23T05:41:43;97245.72;;;13.21;52.47
77574;BME280;66710;48.868;9.080;2023-03-23T05:44:09;97251.50;;;13.19;52.50
77574;BME280;66710;48.868;9.080;2023-03-23T05:46:34;97242.31;;;13.15;52.99
77574;BME280;66710;48.868;9.080;2023-03-23T05:48:59;97253.84;;;13.12;53.23
77574;BME280;66710;48.868;9.080;2023-03-23T05:51:25;97266.44;;;13.13;53.22
77574;BME280;66710;48.868;9.080;2023-03-23T05:53:50;97261.25;;;13.12;53.00
77574;BME280;66710;48.868;9.080;2023-03-23T05:56:15;97252.56;;;13.09;53.63
77574;BME280;66710;48.868;9.080;2023-03-23T05:58:41;97263.81;;;13.08;52.92
77574;BME280;66710;48.868;9.080;2023-03-23T06:01:07;97264.72;;;13.03;53.78
77574;BME280;66710;48.868;9.080;2023-03-23T06:03:32;97272.22;;;12.98;54.17
77574;BME280;66710;48.868;9.080;2023-03-23T06:05:58;97272.41;;;13.01;54.00
77574;BME280;66710;48.868;9.080;2023-03-23T06:08:23;97273.44;;;12.92;54.48
77574;BME280;66710;48.868;9.080;2023-03-23T06:10:49;97280.44;;;12.98;54.65
77574;BME280;66710;48.868;9.080;2023-03-23T06:13:14;97281.72;;;13.00;53.84
77574;BME280;66710;48.868;9.080;2023-03-23T06:15:39;97289.03;;;12.91;54.73
77574;BME280;66710;48.868;9.080;2023-03-23T06:18:05;97300.56;;;12.88;55.10
77574;BME280;66710;48.868;9.080;2023-03-23T06:20:31;97299.56;;;12.84;55.94
77574;BME280;66710;48.868;9.080;2023-03-23T06:22:57;97306.28;;;12.78;56.33
77574;BME280;66710;48.868;9.080;2023-03-23T06:25:23;97309.81;;;12.92;54.85
77574;BME280;66710;48.868;9.080;2023-03-23T06:27:49;97309.41;;;12.85;54.98
77574;BME280;66710;48.868;9.080;2023-03-23T06:30:14;97302.91;;;12.95;54.81
77574;BME280;66710;48.868;9.080;2023-03-23T06:32:40;97304.84;;;12.94;54.86
77574;BME280;66710;48.868;9.080;2023-03-23T06:35:07;97320.84;;;13.01;54.19
77574;BME280;66710;48.868;9.080;2023-03-23T06:37:35;97320.94;;;12.96;55.44
77574;BME280;66710;48.868;9.080;2023-03-23T06:40:02;97325.28;;;12.97;55.05
77574;BME280;66710;48.868;9.080;2023-03-23T06:42:29;97329.25;;;12.90;55.64
77574;BME280;66710;48.868;9.080;2023-03-23T06:44:54;97334.41;;;12.92;55.58
77574;BME280;66710;48.868;9.080;2023-03-23T06:47:21;97323.66;;;12.96;55.68
77574;BME280;66710;48.868;9.080;2023-03-23T06:49:48;97324.84;;;13.17;54.30
77574;BME280;66710;48.868;9.080;2023-03-23T06:52:13;97325.75;;;13.26;53.92
77574;BME280;66710;48.868;9.080;2023-03-23T06:54:38;97326.03;;;13.25;54.43
77574;BME280;66710;48.868;9.080;2023-03-23T06:57:04;97325.44;;;13.28;54.33
77574;BME280;66710;48.868;9.080;2023-03-23T06:59:29;97323.75;;;13.18;54.83
77574;BME280;66710;48.868;9.080;2023-03-23T07:01:54;97328.28;;;13.23;54.21
77574;BME280;66710;48.868;9.080;2023-03-23T07:04:20;97325.84;;;13.21;54.63
77574;BME280;66710;48.868;9.080;2023-03-23T07:06:46;97328.88;;;13.20;55.35
77574;BME280;66710;48.868;9.080;2023-03-23T07:09:11;97343.41;;;13.20;55.16
77574;BME280;66710;48.868;9.080;2023-03-23T07:11:37;97347.53;;;13.18;55.37
77574;BME280;66710;48.868;9.080;2023-03-23T07:14:02;97347.84;;;13.16;55.56
77574;BME280;66710;48.868;9.080;2023-03-23T07:16:29;97353.66;;;13.15;55.74
77574;BME280;66710;48.868;9.080;2023-03-23T07:18:54;97362.75;;;13.10;55.83
77574;BME280;66710;48.868;9.080;2023-03-23T07:21:20;97366.09;;;13.07;56.49
77574;BME280;66710;48.868;9.080;2023-03-23T07:23:45;97373.28;;;13.03;56.64
77574;BME280;66710;48.868;9.080;2023-03-23T07:26:12;97371.75;;;13.11;56.23
77574;BME280;66710;48.868;9.080;2023-03-23T07:28:37;97381.09;;;13.09;56.60
77574;BME280;66710;48.868;9.080;2023-03-23T07:31:03;97383.41;;;13.16;55.86
77574;BME280;66710;48.868;9.080;2023-03-23T07:33:28;97393.03;;;13.14;56.76
77574;BME280;66710;48.868;9.080;2023-03-23T07:35:53;97397.28;;;13.20;56.56
77574;BME280;66710;48.868;9.080;2023-03-23T07:38:19;97399.09;;;13.24;55.91
77574;BME280;66710;48.868;9.080;2023-03-23T07:40:45;97397.66;;;13.27;55.99
77574;BME280;66710;48.868;9.080;2023-03-23T07:43:11;97397.00;;;13.35;55.82
77574;BME280;66710;48.868;9.080;2023-03-23T07:45:36;97402.88;;;13.42;55.79
77574;BME280;66710;48.868;9.080;2023-03-23T07:48:02;97388.06;;;13.57;56.21
77574;BME280;66710;48.868;9.080;2023-03-23T07:50:27;97392.28;;;13.63;56.43
77574;BME280;66710;48.868;9.080;2023-03-23T07:52:56;97386.91;;;13.72;56.22
77574;BME280;66710;48.868;9.080;2023-03-23T07:55:23;97386.28;;;13.75;56.27
77574;BME280;66710;48.868;9.080;2023-03-23T07:57:50;97382.00;;;13.83;56.40
77574;BME280;66710;48.868;9.080;2023-03-23T08:00:18;97395.97;;;13.81;57.18
77574;BME280;66710;48.868;9.080;2023-03-23T08:02:53;97391.66;;;13.80;57.28
77574;BME280;66710;48.868;9.080;2023-03-23T08:05:20;97404.19;;;13.81;56.83
77574;BME280;66710;48.868;9.080;2023-03-23T08:07:46;97403.41;;;13.81;56.92
77574;BME280;66710;48.868;9.080;2023-03-23T08:10:13;97399.75;;;13.86;57.68
77574;BME280;66710;48.868;9.080;2023-03-23T08:12:40;97405.41;;;13.89;57.84
77574;BME280;66710;48.868;9.080;2023-03-23T08:15:07;97408.16;;;13.89;57.51
77574;BME280;66710;48.868;9.080;2023-03-23T08:17:34;97408.84;;;13.95;58.11
77574;BME280;66710;48.868;9.080;2023-03-23T08:20:03;97410.13;;;13.97;57.94
77574;BME280;66710;48.868;9.080;2023-03-23T08:22:38;97412.25;;;14.00;58.10
77574;BME280;66710;48.868;9.080;2023-03-23T08:25:05;97408.41;;;14.01;57.79
77574;BME280;66710;48.868;9.080;2023-03-23T08:27:32;97415.19;;;14.04;58.11
77574;BME280;66710;48.868;9.080;2023-03-23T08:29:58;97419.06;;;14.03;58.25
77574;BME280;66710;48.868;9.080;2023-03-23T08:32:23;97410.59;;;14.13;58.20
77574;BME280;66710;48.868;9.080;2023-03-23T08:34:49;97416.63;;;14.01;58.65
77574;BME280;66710;48.868;9.080;2023-03-23T08:37:15;97414.28;;;14.09;58.44
77574;BME280;66710;48.868;9.080;2023-03-23T08:39:41;97426.44;;;14.02;58.29
77574;BME280;66710;48.868;9.080;2023-03-23T08:42:08;97417.25;;;13.98;58.53
77574;BME280;66710;48.868;9.080;2023-03-23T08:44:33;97420.97;;;14.02;58.64
77574;BME280;66710;48.868;9.080;2023-03-23T08:46:59;97426.88;;;13.96;58.99
77574;BME280;66710;48.868;9.080;2023-03-23T08:49:25;97431.06;;;13.93;59.05
77574;BME280;66710;48.868;9.080;2023-03-23T08:51:51;97439.28;;;13.93;58.92
77574;BME280;66710;48.868;9.080;2023-03-23T08:54:16;97443.44;;;13.91;59.04
77574;BME280;66710;48.868;9.080;2023-03-23T08:56:43;97439.38;;;13.88;59.60
77574;BME280;66710;48.868;9.080;2023-03-23T08:59:08;97437.63;;;13.92;58.62
77574;BME280;66710;48.868;9.080;2023-03-23T09:01:34;97436.34;;;13.90;59.55
77574;BME280;66710;48.868;9.080;2023-03-23T09:03:59;97437.03;;;13.95;58.57
77574;BME280;66710;48.868;9.080;2023-03-23T09:06:25;97439.75;;;13.95;58.34
77574;BME280;66710;48.868;9.080;2023-03-23T09:08:51;97443.19;;;14.01;58.57
77574;BME280;66710;48.868;9.080;2023-03-23T09:11:16;97448.66;;;14.01;58.94
77574;BME280;66710;48.868;9.080;2023-03-23T09:13:41;97444.22;;;14.05;58.73
77574;BME280;66710;48.868;9.080;2023-03-23T09:16:07;97453.13;;;14.11;57.49
77574;BME280;66710;48.868;9.080;2023-03-23T09:18:33;97456.84;;;14.15;57.85
77574;BME280;66710;48.868;9.080;2023-03-23T09:21:00;97456.63;;;14.25;58.10
77574;BME280;66710;48.868;9.080;2023-03-23T09:23:26;97457.00;;;14.32;57.52
77574;BME280;66710;48.868;9.080;2023-03-23T09:25:52;97470.19;;;14.30;57.50
77574;BME280;66710;48.868;9.080;2023-03-23T09:28:18;97471.41;;;14.24;57.34
77574;BME280;66710;48.868;9.080;2023-03-23T09:30:44;97486.75;;;14.25;57.79
77574;BME280;66710;48.868;9.080;2023-03-23T09:33:11;97480.78;;;14.23;58.32
77574;BME280;66710;48.868;9.080;2023-03-23T09:35:36;97481.38;;;14.20;57.92
77574;BME280;66710;48.868;9.080;2023-03-23T09:38:04;97481.97;;;14.31;58.30
77574;BME280;66710;48.868;9.080;2023-03-23T09:46:39;97484.16;;;14.43;57.10
77574;BME280;66710;48.868;9.080;2023-03-23T09:49:11;97483.34;;;14.42;57.01
77574;BME280;66710;48.868;9.080;2023-03-23T09:54:11;97492.75;;;14.50;57.00
77574;BME280;66710;48.868;9.080;2023-03-23T09:56:38;97493.38;;;14.47;57.83
77574;BME280;66710;48.868;9.080;2023-03-23T09:59:29;97501.41;;;14.43;57.93
77574;BME280;66710;48.868;9.080;2023-03-23T10:02:09;97493.81;;;14.40;57.95
77574;BME280;66710;48.868;9.080;2023-03-23T10:04:41;97500.53;;;14.34;58.85
77574;BME280;66710;48.868;9.080;2023-03-23T10:07:18;97504.53;;;14.28;59.13
77574;BME280;66710;48.868;9.080;2023-03-23T10:09:46;97501.88;;;14.59;58.85
77574;BME280;66710;48.868;9.080;2023-03-23T10:12:29;97508.38;;;14.63;59.06
77574;BME280;66710;48.868;9.080;2023-03-23T10:15:20;97498.09;;;14.69;58.65
77574;BME280;66710;48.868;9.080;2023-03-23T10:17:57;97484.91;;;14.57;59.20
77574;BME280;66710;48.868;9.080;2023-03-23T10:20:31;97505.22;;;14.56;59.68
77574;BME280;66710;48.868;9.080;2023-03-23T10:28:54;97498.53;;;15.56;56.22
77574;BME280;66710;48.868;9.080;2023-03-23T10:31:24;97500.31;;;15.52;56.97
77574;BME280;66710;48.868;9.080;2023-03-23T10:33:53;97504.47;;;15.09;57.75
77574;BME280;66710;48.868;9.080;2023-03-23T10:36:24;97506.53;;;15.04;59.20
77574;BME280;66710;48.868;9.080;2023-03-23T10:39:14;97510.84;;;14.96;58.38
77574;BME280;66710;48.868;9.080;2023-03-23T10:41:42;97513.94;;;14.72;58.72
77574;BME280;66710;48.868;9.080;2023-03-23T10:44:16;97512.63;;;14.55;59.77
77574;BME280;66710;48.868;9.080;2023-03-23T10:49:23;97506.00;;;14.70;59.07
77574;BME280;66710;48.868;9.080;2023-03-23T10:55:21;97497.25;;;14.46;58.63
77574;BME280;66710;48.868;9.080;2023-03-23T10:58:06;97490.91;;;14.59;59.23
77574;BME280;66710;48.868;9.080;2023-03-23T11:00:32;97504.72;;;14.54;58.64
77574;BME280;66710;48.868;9.080;2023-03-23T11:03:03;97499.13;;;14.59;58.89
77574;BME280;66710;48.868;9.080;2023-03-23T11:05:37;97502.50;;;14.78;59.09
77574;BME280;66710;48.868;9.080;2023-03-23T11:08:12;97499.44;;;14.80;58.73
77574;BME280;66710;48.868;9.080;2023-03-23T11:10:41;97490.97;;;14.90;58.36
77574;BME280;66710;48.868;9.080;2023-03-23T11:13:14;97495.97;;;14.66;59.32
77574;BME280;66710;48.868;9.080;2023-03-23T11:15:42;97495.66;;;14.67;60.12
77574;BME280;66710;48.868;9.080;2023-03-23T11:18:35;97492.91;;;14.67;59.79
77574;BME280;66710;48.868;9.080;2023-03-23T11:21:02;97495.72;;;14.76;59.56
77574;BME280;66710;48.868;9.080;2023-03-23T11:23:39;97491.72;;;14.82;59.74
77574;BME280;66710;48.868;9.080;2023-03-23T11:26:20;97491.09;;;14.85;59.70
77574;BME280;66710;48.868;9.080;2023-03-23T11:29:02;97486.34;;;14.77;59.88
77574;BME280;66710;48.868;9.080;2023-03-23T11:31:42;97493.50;;;15.09;58.43
77574;BME280;66710;48.868;9.080;2023-03-23T11:34:23;97489.28;;;15.43;58.23
77574;BME280;66710;48.868;9.080;2023-03-23T11:37:01;97485.03;;;15.28;58.51
77574;BME280;66710;48.868;9.080;2023-03-23T11:39:30;97474.06;;;15.28;59.20
77574;BME280;66710;48.868;9.080;2023-03-23T11:41:58;97481.16;;;15.29;59.46
77574;BME280;66710;48.868;9.080;2023-03-23T11:44:32;97479.47;;;15.51;58.78
77574;BME280;66710;48.868;9.080;2023-03-23T11:47:04;97478.38;;;15.21;59.01
77574;BME280;66710;48.868;9.080;2023-03-23T11:49:47;97483.53;;;15.53;58.75
77574;BME280;66710;48.868;9.080;2023-03-23T11:52:32;97481.31;;;15.73;57.76
77574;BME280;66710;48.868;9.080;2023-03-23T11:55:09;97482.72;;;15.53;58.26
77574;BME280;66710;48.868;9.080;2023-03-23T11:57:36;97480.72;;;15.76;57.73
77574;BME280;66710;48.868;9.080;2023-03-23T12:00:05;97485.28;;;15.58;58.34
77574;BME280;66710;48.868;9.080;2023-03-23T12:05:34;97473.97;;;16.00;58.10
77574;BME280;66710;48.868;9.080;2023-03-23T12:16:18;97477.22;;;15.53;56.78
77574;BME280;66710;48.868;9.080;2023-03-23T12:36:07;97469.75;;;16.63;57.57
77574;BME280;66710;48.868;9.080;2023-03-23T12:38:41;97459.91;;;16.45;57.59
77574;BME280;66710;48.868;9.080;2023-03-23T12:41:29;97453.75;;;16.39;56.94
77574;BME280;66710;48.868;9.080;2023-03-23T12:44:08;97456.81;;;16.64;56.21
77574;BME280;66710;48.868;9.080;2023-03-23T12:52:09;97447.28;;;16.44;56.50
77574;BME280;66710;48.868;9.080;2023-03-23T12:54:50;97447.28;;;16.61;55.92
77574;BME280;66710;48.868;9.080;2023-03-23T12:57:24;97443.75;;;16.35;56.40
77574;BME280;66710;48.868;9.080;2023-03-23T13:00:06;97436.78;;;16.46;55.09
77574;BME280;66710;48.868;9.080;2023-03-23T13:03:30;97443.59;;;16.22;54.89
77574;BME280;66710;48.868;9.080;2023-03-23T13:05:49;97439.22;;;16.39;54.15
77574;BME280;66710;48.868;9.080;2023-03-23T13:08:30;97437.44;;;16.17;54.42
77574;BME280;66710;48.868;9.080;2023-03-23T13:11:01;97431.75;;;16.48;54.32
77574;BME280;66710;48.868;9.080;2023-03-23T13:13:48;97426.06;;;16.71;55.98
77574;BME280;66710;48.868;9.080;2023-03-23T13:22:06;97412.16;;;16.67;53.38
77574;BME280;66710;48.868;9.080;2023-03-23T13:24:36;97409.41;;;17.23;54.11
77574;BME280;66710;48.868;9.080;2023-03-23T13:27:04;97410.31;;;16.97;55.69
77574;BME280;66710;48.868;9.080;2023-03-23T13:29:30;97407.44;;;16.85;52.72
77574;BME280;66710;48.868;9.080;2023-03-23T13:32:12;97412.75;;;16.81;52.18
77574;BME280;66710;48.868;9.080;2023-03-23T13:34:40;97410.25;;;16.50;51.76
77574;BME280;66710;48.868;9.080;2023-03-23T13:37:11;97408.13;;;16.56;51.22
77574;BME280;66710;48.868;9.080;2023-03-23T13:39:56;97400.88;;;16.34;51.67
77574;BME280;66710;48.868;9.080;2023-03-23T13:42:28;97394.44;;;16.29;51.88
77574;BME280;66710;48.868;9.080;2023-03-23T13:45:05;97395.72;;;16.23;52.44
77574;BME280;66710;48.868;9.080;2023-03-23T13:47:39;97400.56;;;16.26;52.04
77574;BME280;66710;48.868;9.080;2023-03-23T14:00:33;97378.59;;;16.09;52.39
77574;BME280;66710;48.868;9.080;2023-03-23T14:03:24;97373.09;;;16.18;52.38
77574;BME280;66710;48.868;9.080;2023-03-23T14:08:37;97376.81;;;16.22;52.57
77574;BME280;66710;48.868;9.080;2023-03-23T14:11:13;97368.06;;;16.11;52.05
77574;BME280;66710;48.868;9.080;2023-03-23T14:16:38;97356.28;;;16.19;52.65
77574;BME280;66710;48.868;9.080;2023-03-23T14:19:15;97340.44;;;16.16;53.14
77574;BME280;66710;48.868;9.080;2023-03-23T14:21:49;97333.50;;;16.19;52.59
77574;BME280;66710;48.868;9.080;2023-03-23T14:24:17;97336.22;;;16.27;52.74
77574;BME280;66710;48.868;9.080;2023-03-23T14:26:43;97341.38;;;16.38;52.06
77574;BME280;66710;48.868;9.080;2023-03-23T14:29:11;97335.38;;;16.36;52.83
77574;BME280;66710;48.868;9.080;2023-03-23T14:31:38;97341.41;;;16.29;53.57
77574;BME280;66710;48.868;9.080;2023-03-23T14:34:12;97338.69;;;16.11;53.53
77574;BME280;66710;48.868;9.080;2023-03-23T14:36:39;97349.16;;;16.18;52.98
77574;BME280;66710;48.868;9.080;2023-03-23T14:39:19;97345.28;;;16.28;52.30
77574;BME280;66710;48.868;9.080;2023-03-23T14:41:46;97345.13;;;16.24;52.06
77574;BME280;66710;48.868;9.080;2023-03-23T14:44:15;97351.25;;;16.21;52.69